createdAt,value
2017-09-17T00:00:49.729Z,2.40
2017-09-17T00:03:17.233Z,4.37
2017-09-17T00:05:44.783Z,4.40
2017-09-17T00:08:12.269Z,2.63
2017-09-17T00:10:39.750Z,3.33
2017-09-17T00:13:07.266Z,3.40
2017-09-17T00:15:34.773Z,3.20
2017-09-17T00:18:02.286Z,2.10
2017-09-17T00:20:29.776Z,3.20
2017-09-17T00:22:57.299Z,2.80
2017-09-17T00:25:25.730Z,3.73
2017-09-17T00:27:53.217Z,2.57
2017-09-17T00:30:20.738Z,2.70
2017-09-17T00:32:48.230Z,5.20
2017-09-17T00:35:16.513Z,5.50
2017-09-17T00:37:44.034Z,5.03
2017-09-17T00:40:11.569Z,3.00
2017-09-17T00:42:39.070Z,3.73
2017-09-17T00:45:06.554Z,4.10
2017-09-17T00:47:34.081Z,3.40
2017-09-17T00:50:01.573Z,3.70
2017-09-17T00:52:29.075Z,5.37
2017-09-17T00:54:56.596Z,2.73
2017-09-17T00:57:24.090Z,6.83
2017-09-17T00:59:52.354Z,2.87
2017-09-17T01:02:20.650Z,2.63
2017-09-17T01:04:48.142Z,4.90
2017-09-17T01:07:16.406Z,3.27
2017-09-17T01:09:44.707Z,2.87
2017-09-17T01:12:12.200Z,6.43
2017-09-17T01:14:39.693Z,4.20
2017-09-17T01:17:07.210Z,3.23
2017-09-17T01:19:35.469Z,3.07
2017-09-17T01:22:02.995Z,4.20
2017-09-17T01:24:30.486Z,3.17
2017-09-17T01:26:57.977Z,5.87
2017-09-17T01:29:25.490Z,3.43
2017-09-17T01:31:52.991Z,4.10
2017-09-17T01:34:20.517Z,8.07
2017-09-17T01:36:48.017Z,2.97
2017-09-17T01:39:15.537Z,4.40
2017-09-17T01:41:43.026Z,3.37
2017-09-17T01:44:10.513Z,2.93
2017-09-17T01:46:38.036Z,3.67
2017-09-17T01:49:06.304Z,3.57
2017-09-17T01:51:34.641Z,6.03
2017-09-17T01:54:02.142Z,3.60
2017-09-17T01:56:29.653Z,6.80
2017-09-17T01:58:57.188Z,2.97
2017-09-17T02:01:24.685Z,3.23
2017-09-17T02:03:52.176Z,5.00
2017-09-17T02:06:20.453Z,5.20
2017-09-17T02:08:47.982Z,4.37
2017-09-17T02:11:15.501Z,3.70
2017-09-17T02:13:42.982Z,3.13
2017-09-17T02:16:10.514Z,5.83
2017-09-17T02:18:38.778Z,4.10
2017-09-17T02:21:06.266Z,5.60
2017-09-17T02:23:33.785Z,4.37
2017-09-17T02:26:01.281Z,6.23
2017-09-17T02:28:28.806Z,3.90
2017-09-17T02:30:56.293Z,3.53
2017-09-17T02:33:23.790Z,4.17
2017-09-17T02:35:51.306Z,6.13
2017-09-17T02:38:18.785Z,3.53
2017-09-17T02:40:46.309Z,8.00
2017-09-17T02:43:13.814Z,4.53
2017-09-17T02:45:41.298Z,4.53
2017-09-17T02:48:08.811Z,5.90
2017-09-17T02:50:36.302Z,3.60
2017-09-17T02:53:03.811Z,5.57
2017-09-17T02:55:31.301Z,5.10
2017-09-17T02:57:58.817Z,4.77
2017-09-17T03:00:26.310Z,4.80
2017-09-17T03:02:53.833Z,5.17
2017-09-17T03:05:21.350Z,5.03
2017-09-17T03:07:48.839Z,4.87
2017-09-17T03:10:16.337Z,8.53
2017-09-17T03:12:45.393Z,3.83
2017-09-17T03:15:12.887Z,7.00
2017-09-17T03:17:41.154Z,4.67
2017-09-17T03:20:09.470Z,5.20
2017-09-17T03:22:36.949Z,4.23
2017-09-17T03:25:04.445Z,6.07
2017-09-17T03:27:31.957Z,4.37
2017-09-17T03:29:59.446Z,5.80
2017-09-17T03:32:26.964Z,3.97
2017-09-17T03:34:54.465Z,3.37
2017-09-17T03:37:22.746Z,5.90
2017-09-17T03:39:50.238Z,6.17
2017-09-17T03:42:23.510Z,4.90
2017-09-17T03:44:51.001Z,4.50
2017-09-17T03:47:19.289Z,6.70
2017-09-17T03:49:46.787Z,4.07
2017-09-17T03:52:15.061Z,7.23
2017-09-17T03:54:43.355Z,7.00
2017-09-17T03:57:10.856Z,5.43
2017-09-17T03:59:39.186Z,6.73
2017-09-17T04:02:06.730Z,4.70
2017-09-17T04:04:34.226Z,5.87
2017-09-17T04:07:01.718Z,4.60
2017-09-17T04:09:29.237Z,4.67
2017-09-17T04:11:56.729Z,4.90
2017-09-17T04:14:24.253Z,10.90
2017-09-17T04:16:51.789Z,4.50
2017-09-17T04:19:19.282Z,5.03
2017-09-17T04:21:47.537Z,4.30
2017-09-17T04:24:15.082Z,4.67
2017-09-17T04:26:43.334Z,5.10
2017-09-17T04:29:11.611Z,5.00
2017-09-17T04:31:39.872Z,5.03
2017-09-17T04:34:08.152Z,3.83
2017-09-17T04:36:35.660Z,5.57
2017-09-17T04:39:03.937Z,4.83
2017-09-17T04:41:31.454Z,3.83
2017-09-17T04:43:58.973Z,7.07
2017-09-17T04:46:26.493Z,6.70
2017-09-17T04:48:53.985Z,5.87
2017-09-17T04:51:21.501Z,4.37
2017-09-17T04:53:48.994Z,5.03
2017-09-17T04:56:17.287Z,4.40
2017-09-17T04:58:44.784Z,5.63
2017-09-17T05:01:13.053Z,4.37
2017-09-17T05:03:41.350Z,5.83
2017-09-17T05:06:08.838Z,5.90
2017-09-17T05:08:36.330Z,4.17
2017-09-17T05:11:03.842Z,6.00
2017-09-17T05:13:32.106Z,6.83
2017-09-17T05:16:00.393Z,5.43
2017-09-17T05:18:27.890Z,4.43
2017-09-17T05:20:55.425Z,5.37
2017-09-17T05:23:22.942Z,6.33
2017-09-17T05:25:50.453Z,5.33
2017-09-17T05:28:17.950Z,5.20
2017-09-17T05:30:45.475Z,4.23
2017-09-17T05:33:12.962Z,4.53
2017-09-17T05:35:41.214Z,4.63
2017-09-17T05:38:08.757Z,4.17
2017-09-17T05:40:36.243Z,5.17
2017-09-17T05:43:03.758Z,5.70
2017-09-17T05:45:32.013Z,7.90
2017-09-17T05:48:00.341Z,6.90
2017-09-17T05:50:27.830Z,5.40
2017-09-17T05:52:55.314Z,4.63
2017-09-17T05:55:22.828Z,4.57
2017-09-17T05:57:50.316Z,3.83
2017-09-17T06:00:17.845Z,5.30
2017-09-17T06:02:45.346Z,7.80
2017-09-17T06:05:13.619Z,4.20
2017-09-17T06:07:41.146Z,5.10
2017-09-17T06:10:09.405Z,6.67
2017-09-17T06:12:37.703Z,6.57
2017-09-17T06:15:05.237Z,8.33
2017-09-17T06:17:32.749Z,6.40
2017-09-17T06:20:01.004Z,5.77
2017-09-17T06:22:29.279Z,6.27
2017-09-17T06:24:57.534Z,5.07
2017-09-17T06:27:25.822Z,5.20
2017-09-17T06:29:53.328Z,6.00
2017-09-17T06:32:21.609Z,5.67
2017-09-17T06:34:49.102Z,4.37
2017-09-17T06:37:16.625Z,5.00
2017-09-17T06:39:44.127Z,4.03
2017-09-17T06:42:12.379Z,4.00
2017-09-17T06:44:40.675Z,10.33
2017-09-17T06:47:08.182Z,5.60
2017-09-17T06:49:35.696Z,4.33
2017-09-17T06:52:03.192Z,5.83
2017-09-17T06:54:31.502Z,4.00
2017-09-17T06:56:58.985Z,4.50
2017-09-17T06:59:26.510Z,4.73
2017-09-17T07:01:54.762Z,5.50
2017-09-17T07:04:22.246Z,3.87
2017-09-17T07:06:50.526Z,5.03
2017-09-17T07:09:18.013Z,4.13
2017-09-17T07:11:45.545Z,5.20
2017-09-17T07:14:13.045Z,5.00
2017-09-17T07:16:40.537Z,3.37
2017-09-17T07:19:08.058Z,3.47
2017-09-17T07:21:35.553Z,5.40
2017-09-17T07:24:03.853Z,4.43
2017-09-17T07:26:31.349Z,5.30
2017-09-17T07:28:59.616Z,4.53
2017-09-17T07:31:27.906Z,3.77
2017-09-17T07:33:55.397Z,7.70
2017-09-17T07:36:22.918Z,4.13
2017-09-17T07:38:50.412Z,4.27
2017-09-17T07:41:18.707Z,5.37
2017-09-17T07:43:46.209Z,4.60
2017-09-17T07:46:13.739Z,3.80
2017-09-17T07:48:41.225Z,4.33
2017-09-17T07:51:08.726Z,4.20
2017-09-17T07:53:36.241Z,4.63
2017-09-17T07:56:03.778Z,5.50
2017-09-17T07:58:31.281Z,4.20
2017-09-17T08:00:59.541Z,4.60
2017-09-17T08:03:27.842Z,4.67
2017-09-17T08:05:55.346Z,7.53
2017-09-17T08:08:23.602Z,4.97
2017-09-17T08:10:51.132Z,7.97
2017-09-17T08:13:18.650Z,6.60
2017-09-17T08:15:46.183Z,5.07
2017-09-17T08:18:13.677Z,5.97
2017-09-17T08:20:41.973Z,3.70
2017-09-17T08:23:09.461Z,4.67
2017-09-17T08:25:36.981Z,4.10
2017-09-17T08:28:04.520Z,4.43
2017-09-17T08:30:32.026Z,4.00
2017-09-17T08:32:59.554Z,4.33
2017-09-17T08:35:27.817Z,6.67
2017-09-17T08:37:56.146Z,5.53
2017-09-17T08:40:23.690Z,5.50
2017-09-17T08:42:51.181Z,4.90
2017-09-17T08:45:18.733Z,5.30
2017-09-17T08:47:46.236Z,3.50
2017-09-17T08:50:14.512Z,5.27
2017-09-17T08:52:42.411Z,5.60
2017-09-17T08:55:09.922Z,4.43
2017-09-17T08:57:37.411Z,5.47
2017-09-17T09:00:04.931Z,3.87
2017-09-17T09:02:32.427Z,6.67
2017-09-17T09:04:59.961Z,6.20
2017-09-17T09:07:27.516Z,6.77
2017-09-17T09:09:55.790Z,5.37
2017-09-17T09:12:24.079Z,5.97
2017-09-17T09:14:51.566Z,8.87
2017-09-17T09:17:19.096Z,5.13
2017-09-17T09:19:46.589Z,5.20
2017-09-17T09:22:14.126Z,4.17
2017-09-17T09:24:42.385Z,5.23
2017-09-17T09:27:10.638Z,5.27
2017-09-17T09:29:38.920Z,3.97
2017-09-17T09:32:06.453Z,3.83
2017-09-17T09:34:34.723Z,6.00
2017-09-17T09:37:02.220Z,3.23
2017-09-17T09:39:29.749Z,4.80
2017-09-17T09:41:57.254Z,5.40
2017-09-17T09:44:24.777Z,3.90
2017-09-17T09:46:53.180Z,6.47
2017-09-17T09:49:20.731Z,4.00
2017-09-17T09:51:48.284Z,5.93
2017-09-17T09:54:15.783Z,4.80
2017-09-17T09:56:44.073Z,3.30
2017-09-17T09:59:11.594Z,3.80
2017-09-17T10:01:39.093Z,4.27
2017-09-17T10:04:06.626Z,3.90
2017-09-17T10:06:34.114Z,5.47
2017-09-17T10:09:02.384Z,2.80
2017-09-17T10:11:29.929Z,4.37
2017-09-17T10:13:57.450Z,4.10
2017-09-17T10:16:25.734Z,3.50
2017-09-17T10:18:53.275Z,3.60
2017-09-17T10:21:20.769Z,4.17
2017-09-17T10:23:48.261Z,3.70
2017-09-17T10:26:16.558Z,3.07
2017-09-17T10:28:44.091Z,3.27
2017-09-17T10:31:11.601Z,2.90
2017-09-17T10:33:39.866Z,2.80
2017-09-17T10:36:07.394Z,2.83
2017-09-17T10:38:34.905Z,3.07
2017-09-17T10:41:02.454Z,4.13
2017-09-17T10:43:29.953Z,3.60
2017-09-17T10:45:57.452Z,3.63
2017-09-17T10:48:24.994Z,3.23
2017-09-17T10:50:52.499Z,4.07
2017-09-17T10:53:19.990Z,4.40
2017-09-17T10:55:47.517Z,4.67
2017-09-17T10:58:15.013Z,4.83
2017-09-17T11:00:42.511Z,3.23
2017-09-17T11:03:10.041Z,3.20
2017-09-17T11:05:37.549Z,3.70
2017-09-17T11:08:05.075Z,2.73
2017-09-17T11:10:32.598Z,2.87
2017-09-17T11:13:00.862Z,2.80
2017-09-17T11:15:29.167Z,4.03
2017-09-17T11:17:56.701Z,2.90
2017-09-17T11:20:24.214Z,4.20
2017-09-17T11:22:52.606Z,2.30
2017-09-17T11:25:20.153Z,3.00
2017-09-17T11:27:47.651Z,2.07
2017-09-17T11:30:15.142Z,1.60
2017-09-17T11:32:42.674Z,2.23
2017-09-17T11:35:10.210Z,1.70
2017-09-17T11:37:37.750Z,2.10
2017-09-17T11:40:05.304Z,2.63
2017-09-17T11:42:32.821Z,1.60
2017-09-17T11:45:01.102Z,2.53
2017-09-17T11:47:28.649Z,1.93
2017-09-17T11:49:56.150Z,2.00
2017-09-17T11:52:23.677Z,4.07
2017-09-17T11:54:51.200Z,1.70
2017-09-17T11:57:18.736Z,2.50
2017-09-17T11:59:46.233Z,2.30
2017-09-17T12:02:13.740Z,1.43
2017-09-17T12:04:41.281Z,2.13
2017-09-17T12:07:08.809Z,1.80
2017-09-17T12:09:36.376Z,2.13
2017-09-17T12:12:03.886Z,1.93
2017-09-17T12:14:31.709Z,2.67
2017-09-17T12:16:59.993Z,2.53
2017-09-17T12:19:27.526Z,3.47
2017-09-17T12:21:55.787Z,3.60
2017-09-17T12:24:24.050Z,3.40
2017-09-17T12:26:51.578Z,4.70
2017-09-17T12:29:19.079Z,1.60
2017-09-17T12:31:46.610Z,1.83
2017-09-17T12:34:14.159Z,3.13
2017-09-17T12:36:41.736Z,2.93
2017-09-17T12:39:09.327Z,3.33
2017-09-17T12:41:36.818Z,5.83
2017-09-17T12:44:04.329Z,2.00
2017-09-17T12:46:31.861Z,5.60
2017-09-17T12:48:59.380Z,3.43
2017-09-17T12:51:27.682Z,3.27
2017-09-17T12:53:55.178Z,2.57
2017-09-17T12:56:23.438Z,3.90
2017-09-17T12:58:51.730Z,3.70
2017-09-17T13:01:19.229Z,1.77
2017-09-17T13:03:46.761Z,1.93
2017-09-17T13:06:14.261Z,2.40
2017-09-17T13:08:41.753Z,2.70
2017-09-17T13:11:09.296Z,3.03
2017-09-17T13:13:36.792Z,3.07
2017-09-17T13:16:04.293Z,2.53
2017-09-17T13:18:31.822Z,2.83
2017-09-17T13:20:59.313Z,4.80
2017-09-17T13:23:26.809Z,3.07
2017-09-17T13:25:54.347Z,2.00
2017-09-17T13:28:21.842Z,3.87
2017-09-17T13:30:49.342Z,3.13
2017-09-17T13:33:16.858Z,2.83
2017-09-17T13:35:44.349Z,6.57
2017-09-17T13:38:12.658Z,4.07
2017-09-17T13:40:40.141Z,3.00
2017-09-17T13:43:07.686Z,2.53
2017-09-17T13:45:35.181Z,6.00
2017-09-17T13:48:02.681Z,3.03
2017-09-17T13:50:30.973Z,8.93
2017-09-17T13:52:58.514Z,3.93
2017-09-17T13:55:26.066Z,2.13
2017-09-17T13:57:53.566Z,7.17
2017-09-17T14:00:23.731Z,3.90
2017-09-17T14:02:51.223Z,4.57
2017-09-17T14:05:24.403Z,3.20
2017-09-17T14:07:58.342Z,3.37
2017-09-17T14:10:27.373Z,2.00
2017-09-17T14:12:55.645Z,2.40
2017-09-17T14:15:23.150Z,2.60
2017-09-17T14:17:50.687Z,4.80
2017-09-17T14:20:18.190Z,4.10
2017-09-17T14:22:45.697Z,4.07
2017-09-17T14:25:13.981Z,3.10
2017-09-17T14:27:41.477Z,4.33
2017-09-17T14:30:09.012Z,2.40
2017-09-17T14:32:36.510Z,1.83
2017-09-17T14:35:05.605Z,2.80
2017-09-17T14:37:33.125Z,2.50
2017-09-17T14:40:01.414Z,1.57
2017-09-17T14:42:28.937Z,1.33
2017-09-17T14:44:56.469Z,4.90
2017-09-17T14:47:24.738Z,1.63
2017-09-17T14:49:53.048Z,2.10
2017-09-17T14:52:20.537Z,5.53
2017-09-17T14:54:48.793Z,2.33
2017-09-17T14:57:17.111Z,3.10
2017-09-17T14:59:44.606Z,2.70
2017-09-17T15:02:12.141Z,2.87
2017-09-17T15:04:40.430Z,2.00
2017-09-17T15:07:07.925Z,4.60
2017-09-17T15:09:35.597Z,2.90
2017-09-17T15:12:03.105Z,3.97
2017-09-17T15:14:30.589Z,2.27
2017-09-17T15:16:58.887Z,2.53
2017-09-17T15:19:26.389Z,2.53
2017-09-17T15:21:54.650Z,2.90
2017-09-17T15:24:22.195Z,2.40
2017-09-17T15:26:50.461Z,2.77
2017-09-17T15:29:18.721Z,3.10
2017-09-17T15:31:46.253Z,2.83
2017-09-17T15:34:14.522Z,4.30
2017-09-17T15:36:42.805Z,3.63
2017-09-17T15:39:10.333Z,4.43
2017-09-17T15:41:38.129Z,3.03
2017-09-17T15:44:05.665Z,2.83
2017-09-17T15:46:33.166Z,3.90
2017-09-17T15:49:01.429Z,4.17
2017-09-17T15:51:29.717Z,2.60
2017-09-17T15:53:57.218Z,2.83
2017-09-17T15:56:25.484Z,2.63
2017-09-17T15:58:53.789Z,4.37
2017-09-17T16:01:21.285Z,2.73
2017-09-17T16:03:49.589Z,3.30
2017-09-17T16:06:17.139Z,3.70
2017-09-17T16:08:44.629Z,3.47
2017-09-17T16:11:12.934Z,3.10
2017-09-17T16:13:40.429Z,4.50
2017-09-17T16:16:07.946Z,3.37
2017-09-17T16:18:35.438Z,4.03
2017-09-17T16:21:03.731Z,5.27
2017-09-17T16:23:31.263Z,3.57
2017-09-17T16:25:58.749Z,4.30
2017-09-17T16:28:26.250Z,7.70
2017-09-17T16:30:53.794Z,2.57
2017-09-17T16:33:21.290Z,5.50
2017-09-17T16:35:49.548Z,5.50
2017-09-17T16:38:17.078Z,4.90
2017-09-17T16:40:44.610Z,3.27
2017-09-17T16:43:12.107Z,2.07
2017-09-17T16:45:39.693Z,4.90
2017-09-17T16:48:07.974Z,2.20
2017-09-17T16:50:35.486Z,5.70
2017-09-17T16:53:03.037Z,6.30
2017-09-17T16:55:30.529Z,3.00
2017-09-17T16:57:58.801Z,3.30
2017-09-17T17:00:26.327Z,4.43
2017-09-17T17:02:53.833Z,3.33
2017-09-17T17:05:21.378Z,8.80
2017-09-17T17:07:48.898Z,5.10
2017-09-17T17:10:16.423Z,2.90
2017-09-17T17:12:43.945Z,6.00
2017-09-17T17:15:12.220Z,4.40
2017-09-17T17:17:39.779Z,4.63
2017-09-17T17:20:07.460Z,5.70
2017-09-17T17:22:36.168Z,5.97
2017-09-17T17:25:04.897Z,5.30
2017-09-17T17:27:32.458Z,8.40
2017-09-17T17:29:59.978Z,6.53
2017-09-17T17:32:27.473Z,5.13
2017-09-17T17:34:55.774Z,8.30
2017-09-17T17:37:23.268Z,6.10
2017-09-17T17:39:50.773Z,5.30
2017-09-17T17:42:18.325Z,7.23
2017-09-17T17:44:45.819Z,5.90
2017-09-17T17:47:14.087Z,5.20
2017-09-17T17:49:41.606Z,8.43
2017-09-17T17:52:09.869Z,5.17
2017-09-17T17:54:38.149Z,5.23
2017-09-17T17:57:06.467Z,11.90
2017-09-17T17:59:33.981Z,7.80
2017-09-17T18:02:01.474Z,16.10
2017-09-17T18:04:29.769Z,10.00
2017-09-17T18:06:57.269Z,11.43
2017-09-17T18:09:24.761Z,11.30
2017-09-17T18:11:52.295Z,12.83
2017-09-17T18:14:19.804Z,9.20
2017-09-17T18:16:47.357Z,7.57
2017-09-17T18:19:15.623Z,8.00
2017-09-17T18:21:43.886Z,8.40
2017-09-17T18:24:11.431Z,6.90
2017-09-17T18:26:38.973Z,15.63
2017-09-17T18:29:07.319Z,16.00
2017-09-17T18:31:34.809Z,13.60
2017-09-17T18:34:02.394Z,8.67
2017-09-17T18:36:29.992Z,11.77
2017-09-17T18:38:57.534Z,12.33
2017-09-17T18:41:25.073Z,12.27
2017-09-17T18:43:52.562Z,7.03
2017-09-17T18:46:20.062Z,10.97
2017-09-17T18:48:47.623Z,11.63
2017-09-17T18:51:15.134Z,12.30
2017-09-17T18:53:43.393Z,7.90
2017-09-17T18:56:11.683Z,8.37
2017-09-17T18:58:39.190Z,8.80
2017-09-17T19:01:07.464Z,12.53
2017-09-17T19:03:35.750Z,9.20
2017-09-17T19:06:03.258Z,9.97
2017-09-17T19:08:31.556Z,8.30
2017-09-17T19:10:59.057Z,9.57
2017-09-17T19:13:27.342Z,11.30
2017-09-17T19:15:54.909Z,9.30
2017-09-17T19:18:22.409Z,9.13
2017-09-17T19:20:50.678Z,10.67
2017-09-17T19:23:18.973Z,10.03
2017-09-17T19:25:46.475Z,7.43
2017-09-17T19:28:14.726Z,9.83
2017-09-17T19:30:43.053Z,7.10
2017-09-17T19:33:10.543Z,7.40
2017-09-17T19:35:38.169Z,8.00
2017-09-17T19:38:05.722Z,12.03
2017-09-17T19:40:33.220Z,7.13
2017-09-17T19:43:00.715Z,19.40
2017-09-17T19:45:28.228Z,8.23
2017-09-17T19:47:55.717Z,6.17
2017-09-17T19:50:24.016Z,5.23
2017-09-17T19:52:51.514Z,5.67
2017-09-17T19:55:19.779Z,5.10
2017-09-17T19:57:47.326Z,5.00
2017-09-17T20:00:15.585Z,3.50
2017-09-17T20:02:43.082Z,4.63
2017-09-17T20:05:10.621Z,2.67
2017-09-17T20:07:38.117Z,2.93
2017-09-17T20:10:05.614Z,4.10
2017-09-17T20:12:33.134Z,3.03
2017-09-17T20:15:00.629Z,2.03
2017-09-17T20:17:28.926Z,3.87
2017-09-17T20:19:56.428Z,1.40
2017-09-17T20:22:23.920Z,2.20
2017-09-17T20:24:51.434Z,1.70
2017-09-17T20:27:19.717Z,1.97
2017-09-17T20:29:48.009Z,2.03
2017-09-17T20:32:15.500Z,1.50
2017-09-17T20:34:43.761Z,2.17
2017-09-17T20:37:11.277Z,1.70
2017-09-17T20:39:38.779Z,2.60
2017-09-17T20:42:06.313Z,1.67
2017-09-17T20:44:33.801Z,4.10
2017-09-17T20:47:01.306Z,3.53
2017-09-17T20:49:28.839Z,1.40
2017-09-17T20:51:56.565Z,1.80
2017-09-17T20:54:24.830Z,2.23
2017-09-17T20:56:52.350Z,2.83
2017-09-17T20:59:19.851Z,1.63
2017-09-17T21:01:48.149Z,2.17
2017-09-17T21:04:15.634Z,1.70
2017-09-17T21:06:43.129Z,1.67
2017-09-17T21:09:10.657Z,1.87
2017-09-17T21:11:38.145Z,1.43
2017-09-17T21:14:06.413Z,2.00
2017-09-17T21:16:33.954Z,1.77
2017-09-17T21:19:01.450Z,5.20
2017-09-17T21:21:28.936Z,2.50
2017-09-17T21:23:57.242Z,1.77
2017-09-17T21:26:24.748Z,3.93
2017-09-17T21:28:52.262Z,2.10
2017-09-17T21:31:19.782Z,2.97
2017-09-17T21:33:47.281Z,2.27
2017-09-17T21:36:14.819Z,3.40
2017-09-17T21:38:42.313Z,2.40
2017-09-17T21:41:09.829Z,2.93
2017-09-17T21:43:37.367Z,3.73
2017-09-17T21:46:04.862Z,2.70
2017-09-17T21:48:32.353Z,2.43
2017-09-17T21:50:59.873Z,2.70
2017-09-17T21:53:27.398Z,3.10
2017-09-17T21:55:54.917Z,2.43
2017-09-17T21:58:22.425Z,3.73
2017-09-17T22:00:49.958Z,3.30
2017-09-17T22:03:17.465Z,3.70
2017-09-17T22:05:44.954Z,2.43
2017-09-17T22:08:12.481Z,2.57
2017-09-17T22:10:39.973Z,3.33
2017-09-17T22:13:07.473Z,4.50
2017-09-17T22:15:35.003Z,2.67
2017-09-17T22:18:03.270Z,2.10
2017-09-17T22:20:30.816Z,2.50
2017-09-17T22:22:58.349Z,3.93
2017-09-17T22:25:26.612Z,3.10
2017-09-17T22:27:54.905Z,2.50
2017-09-17T22:30:22.401Z,2.20
2017-09-17T22:32:50.684Z,3.53
2017-09-17T22:35:19.034Z,2.23
2017-09-17T22:37:47.289Z,2.67
2017-09-17T22:40:15.586Z,3.83
2017-09-17T22:42:43.093Z,2.20
2017-09-17T22:45:11.354Z,2.00
2017-09-17T22:47:39.638Z,2.37
2017-09-17T22:50:07.799Z,3.40
2017-09-17T22:52:35.317Z,2.07
2017-09-17T22:55:03.606Z,2.30
2017-09-17T22:57:31.105Z,2.60
2017-09-17T22:59:58.653Z,2.37
2017-09-17T23:02:26.146Z,5.77
2017-09-17T23:04:53.642Z,3.57
2017-09-17T23:07:21.169Z,2.90
2017-09-17T23:09:48.668Z,2.10
2017-09-17T23:12:16.193Z,3.03
2017-09-17T23:14:44.450Z,2.73
2017-09-17T23:17:12.726Z,2.60
2017-09-17T23:19:40.242Z,3.10
2017-09-17T23:22:07.742Z,4.37
2017-09-17T23:24:35.287Z,2.90
2017-09-17T23:27:02.782Z,3.30
2017-09-17T23:29:31.041Z,4.17
2017-09-17T23:31:59.341Z,3.90
2017-09-17T23:34:26.833Z,2.90
2017-09-17T23:36:54.321Z,3.70
2017-09-17T23:39:21.838Z,4.20
2017-09-17T23:41:50.106Z,3.50
2017-09-17T23:44:17.641Z,2.60
2017-09-17T23:46:45.145Z,5.23
2017-09-17T23:49:12.661Z,2.73
2017-09-17T23:51:40.161Z,4.30
2017-09-17T23:54:08.441Z,3.53
2017-09-17T23:56:35.988Z,3.43
2017-09-17T23:59:03.514Z,4.97
